General Juan N Alvarez International Airport


Codes: MMAA/ACA
Name: General Juan N Alvarez International Airport
City: Acapulco
Country: Mexico
Elevation: 16 ft.
Wikipedia:

Photos at General Juan N Alvarez International Airport


   Photos courtesy of SpottingLog. You can add your own sightings and photos by signing up for a free trial today.



No photos found.

Weather at General Juan N Alvarez International Airport


Time (UTC)DescriptionTempratureWindCloud coverageVisibilityPressureHumidity
23-May-2024 21:00Broken Clouds31°C18 mph, W53%10000m1009hPa67%
24-May-2024 00:00Scattered Clouds30°C16 mph, W30%10000m1008hPa71%
24-May-2024 03:00Clear Sky29°C11 mph, W1%10000m1010hPa75%
24-May-2024 06:00Clear Sky28°C11 mph, W0%10000m1011hPa78%
24-May-2024 09:00Clear Sky28°C9 mph, NW2%10000m1010hPa78%
24-May-2024 12:00Few Clouds28°C9 mph, NW13%10000m1010hPa78%
24-May-2024 15:00Clear Sky29°C7 mph, W9%10000m1011hPa69%
24-May-2024 18:00Clear Sky29°C11 mph, W6%10000m1010hPa68%
24-May-2024 21:00Overcast Clouds30°C16 mph, W92%10000m1008hPa66%
25-May-2024 00:00Broken Clouds29°C16 mph, W76%10000m1008hPa72%
25-May-2024 03:00Scattered Clouds29°C7 mph, W27%10000m1011hPa73%
25-May-2024 06:00Scattered Clouds28°C7 mph, NW46%10000m1012hPa72%
25-May-2024 09:00Light Rain27°C7 mph, NW36%10000m1010hPa75%
25-May-2024 12:00Light Rain27°C4 mph, NW44%10000m1010hPa71%
25-May-2024 15:00Broken Clouds29°C2 mph, W72%10000m1011hPa58%
25-May-2024 18:00Scattered Clouds29°C13 mph, W45%10000m1010hPa55%
25-May-2024 21:00Few Clouds30°C13 mph, W13%10000m1009hPa62%
26-May-2024 00:00Few Clouds29°C16 mph, W12%10000m1008hPa66%
26-May-2024 03:00Clear Sky28°C9 mph, W3%10000m1011hPa66%
26-May-2024 06:00Clear Sky28°C9 mph, NW3%10000m1012hPa65%
26-May-2024 09:00Clear Sky27°C7 mph, NW1%10000m1010hPa66%
26-May-2024 12:00Clear Sky27°C4 mph, NW1%10000m1011hPa66%
26-May-2024 15:00Clear Sky29°C4 mph, W0%10000m1012hPa57%
26-May-2024 18:00Clear Sky30°C11 mph, W0%10000m1011hPa55%
26-May-2024 21:00Clear Sky30°C16 mph, W0%10000m1009hPa55%
27-May-2024 00:00Clear Sky29°C13 mph, W0%10000m1009hPa61%
27-May-2024 03:00Clear Sky28°C9 mph, NW0%10000m1011hPa64%
27-May-2024 06:00Clear Sky28°C7 mph, NW0%10000m1012hPa65%
27-May-2024 09:00Clear Sky27°C7 mph, NW3%10000m1011hPa66%
27-May-2024 12:00Clear Sky27°C7 mph, NW2%10000m1012hPa66%
27-May-2024 15:00Clear Sky29°C4 mph, W0%10000m1013hPa57%
27-May-2024 18:00Clear Sky29°C11 mph, W0%10000m1012hPa56%
27-May-2024 21:00Clear Sky30°C16 mph, W3%10000m1010hPa56%
28-May-2024 00:00Clear Sky29°C16 mph, W3%10000m1009hPa61%
28-May-2024 03:00Clear Sky28°C11 mph, W0%10000m1011hPa66%
28-May-2024 06:00Clear Sky28°C9 mph, NW0%10000m1013hPa64%
28-May-2024 09:00Clear Sky27°C7 mph, NW0%10000m1011hPa65%
28-May-2024 12:00Clear Sky26°C4 mph, NW0%10000m1012hPa65%
28-May-2024 15:00Clear Sky28°C2 mph, W0%10000m1013hPa57%
28-May-2024 18:00Clear Sky29°C11 mph, SW0%10000m1012hPa57%